sensor_id;sensor_type;location;lat;lon;timestamp;P1;durP1;ratioP1;P2;durP2;ratioP2
11191;SDS011;5652;48.406;10.820;2023-05-15T00:02:27;6.25;;;3.95;;
11191;SDS011;5652;48.406;10.820;2023-05-15T00:04:55;6.47;;;4.15;;
11191;SDS011;5652;48.406;10.820;2023-05-15T00:07:22;5.78;;;4.30;;
11191;SDS011;5652;48.406;10.820;2023-05-15T00:09:49;6.82;;;4.15;;
11191;SDS011;5652;48.406;10.820;2023-05-15T00:12:16;5.95;;;4.07;;
11191;SDS011;5652;48.406;10.820;2023-05-15T00:14:43;9.15;;;4.07;;
11191;SDS011;5652;48.406;10.820;2023-05-15T00:17:10;5.80;;;3.88;;
11191;SDS011;5652;48.406;10.820;2023-05-15T00:19:39;6.07;;;3.72;;
11191;SDS011;5652;48.406;10.820;2023-05-15T00:22:06;6.32;;;4.03;;
11191;SDS011;5652;48.406;10.820;2023-05-15T00:24:33;5.53;;;4.20;;
11191;SDS011;5652;48.406;10.820;2023-05-15T00:27:00;6.60;;;4.35;;
11191;SDS011;5652;48.406;10.820;2023-05-15T00:29:28;7.57;;;4.50;;
11191;SDS011;5652;48.406;10.820;2023-05-15T00:31:55;11.27;;;4.30;;
11191;SDS011;5652;48.406;10.820;2023-05-15T00:34:23;5.55;;;4.30;;
11191;SDS011;5652;48.406;10.820;2023-05-15T00:36:51;7.05;;;4.15;;
11191;SDS011;5652;48.406;10.820;2023-05-15T00:39:18;6.07;;;4.10;;
11191;SDS011;5652;48.406;10.820;2023-05-15T00:41:45;5.72;;;4.00;;
11191;SDS011;5652;48.406;10.820;2023-05-15T00:44:13;5.13;;;3.60;;
11191;SDS011;5652;48.406;10.820;2023-05-15T00:46:41;5.53;;;3.80;;
11191;SDS011;5652;48.406;10.820;2023-05-15T00:49:09;4.40;;;3.80;;
11191;SDS011;5652;48.406;10.820;2023-05-15T00:51:37;7.00;;;4.05;;
11191;SDS011;5652;48.406;10.820;2023-05-15T00:54:08;9.90;;;3.65;;
11191;SDS011;5652;48.406;10.820;2023-05-15T00:56:36;5.40;;;3.75;;
11191;SDS011;5652;48.406;10.820;2023-05-15T00:59:03;6.63;;;4.00;;
11191;SDS011;5652;48.406;10.820;2023-05-15T01:01:31;5.30;;;3.80;;
11191;SDS011;5652;48.406;10.820;2023-05-15T01:03:58;5.35;;;4.15;;
11191;SDS011;5652;48.406;10.820;2023-05-15T01:06:26;6.95;;;4.32;;
11191;SDS011;5652;48.406;10.820;2023-05-15T01:08:53;8.40;;;4.83;;
11191;SDS011;5652;48.406;10.820;2023-05-15T01:11:24;7.10;;;4.40;;
11191;SDS011;5652;48.406;10.820;2023-05-15T01:13:51;8.38;;;4.70;;
11191;SDS011;5652;48.406;10.820;2023-05-15T01:16:19;7.53;;;4.70;;
11191;SDS011;5652;48.406;10.820;2023-05-15T01:18:47;6.63;;;4.60;;
11191;SDS011;5652;48.406;10.820;2023-05-15T01:21:24;13.43;;;4.90;;
11191;SDS011;5652;48.406;10.820;2023-05-15T01:23:57;7.30;;;4.57;;
11191;SDS011;5652;48.406;10.820;2023-05-15T01:26:37;7.10;;;4.43;;
11191;SDS011;5652;48.406;10.820;2023-05-15T01:29:13;6.50;;;4.35;;
11191;SDS011;5652;48.406;10.820;2023-05-15T01:31:47;5.97;;;4.18;;
11191;SDS011;5652;48.406;10.820;2023-05-15T01:34:16;6.22;;;4.40;;
11191;SDS011;5652;48.406;10.820;2023-05-15T01:36:45;7.82;;;4.57;;
11191;SDS011;5652;48.406;10.820;2023-05-15T01:39:14;7.22;;;4.82;;
11191;SDS011;5652;48.406;10.820;2023-05-15T01:41:44;7.40;;;4.78;;
11191;SDS011;5652;48.406;10.820;2023-05-15T01:44:16;7.20;;;4.45;;
11191;SDS011;5652;48.406;10.820;2023-05-15T01:46:45;7.63;;;5.28;;
11191;SDS011;5652;48.406;10.820;2023-05-15T01:49:14;11.20;;;4.72;;
11191;SDS011;5652;48.406;10.820;2023-05-15T01:51:41;7.15;;;4.90;;
11191;SDS011;5652;48.406;10.820;2023-05-15T01:54:10;7.68;;;4.82;;
11191;SDS011;5652;48.406;10.820;2023-05-15T01:56:38;8.23;;;4.93;;
11191;SDS011;5652;48.406;10.820;2023-05-15T01:59:07;6.85;;;4.85;;
11191;SDS011;5652;48.406;10.820;2023-05-15T02:01:36;8.07;;;5.10;;
11191;SDS011;5652;48.406;10.820;2023-05-15T02:04:04;6.78;;;4.90;;
11191;SDS011;5652;48.406;10.820;2023-05-15T02:06:31;8.25;;;5.20;;
11191;SDS011;5652;48.406;10.820;2023-05-15T02:09:00;7.20;;;4.90;;
11191;SDS011;5652;48.406;10.820;2023-05-15T02:11:28;9.48;;;5.68;;
11191;SDS011;5652;48.406;10.820;2023-05-15T02:13:55;8.25;;;5.13;;
11191;SDS011;5652;48.406;10.820;2023-05-15T02:16:23;8.45;;;5.35;;
11191;SDS011;5652;48.406;10.820;2023-05-15T02:18:51;9.32;;;5.07;;
11191;SDS011;5652;48.406;10.820;2023-05-15T02:21:18;7.17;;;4.80;;
11191;SDS011;5652;48.406;10.820;2023-05-15T02:23:46;8.15;;;5.60;;
11191;SDS011;5652;48.406;10.820;2023-05-15T02:26:17;7.43;;;5.35;;
11191;SDS011;5652;48.406;10.820;2023-05-15T02:28:49;7.13;;;5.07;;
11191;SDS011;5652;48.406;10.820;2023-05-15T02:31:22;8.38;;;4.88;;
11191;SDS011;5652;48.406;10.820;2023-05-15T02:33:56;7.55;;;4.47;;
11191;SDS011;5652;48.406;10.820;2023-05-15T02:36:26;10.57;;;6.68;;
11191;SDS011;5652;48.406;10.820;2023-05-15T02:38:55;7.85;;;5.35;;
11191;SDS011;5652;48.406;10.820;2023-05-15T02:41:24;8.20;;;5.57;;
11191;SDS011;5652;48.406;10.820;2023-05-15T02:43:52;7.28;;;5.03;;
11191;SDS011;5652;48.406;10.820;2023-05-15T02:46:20;7.15;;;4.90;;
11191;SDS011;5652;48.406;10.820;2023-05-15T02:48:48;7.07;;;4.87;;
11191;SDS011;5652;48.406;10.820;2023-05-15T02:51:17;7.33;;;4.90;;
11191;SDS011;5652;48.406;10.820;2023-05-15T02:53:45;10.20;;;5.40;;
11191;SDS011;5652;48.406;10.820;2023-05-15T02:56:12;10.43;;;4.90;;
11191;SDS011;5652;48.406;10.820;2023-05-15T02:58:39;7.55;;;5.13;;
11191;SDS011;5652;48.406;10.820;2023-05-15T03:01:06;6.47;;;4.80;;
11191;SDS011;5652;48.406;10.820;2023-05-15T03:03:33;8.10;;;5.10;;
11191;SDS011;5652;48.406;10.820;2023-05-15T03:06:00;9.38;;;5.18;;
11191;SDS011;5652;48.406;10.820;2023-05-15T03:08:29;7.95;;;5.10;;
11191;SDS011;5652;48.406;10.820;2023-05-15T03:10:56;9.13;;;5.28;;
11191;SDS011;5652;48.406;10.820;2023-05-15T03:13:23;8.00;;;5.15;;
11191;SDS011;5652;48.406;10.820;2023-05-15T03:15:50;7.67;;;5.10;;
11191;SDS011;5652;48.406;10.820;2023-05-15T03:18:18;8.70;;;5.32;;
11191;SDS011;5652;48.406;10.820;2023-05-15T03:20:45;7.43;;;4.93;;
11191;SDS011;5652;48.406;10.820;2023-05-15T03:23:13;8.68;;;5.30;;
11191;SDS011;5652;48.406;10.820;2023-05-15T03:25:41;8.00;;;4.82;;
11191;SDS011;5652;48.406;10.820;2023-05-15T03:28:08;9.18;;;5.60;;
11191;SDS011;5652;48.406;10.820;2023-05-15T03:30:36;8.20;;;5.50;;
11191;SDS011;5652;48.406;10.820;2023-05-15T03:33:03;8.70;;;5.30;;
11191;SDS011;5652;48.406;10.820;2023-05-15T03:35:30;7.85;;;5.18;;
11191;SDS011;5652;48.406;10.820;2023-05-15T03:37:57;9.00;;;5.18;;
11191;SDS011;5652;48.406;10.820;2023-05-15T03:40:24;8.23;;;5.57;;
11191;SDS011;5652;48.406;10.820;2023-05-15T03:42:53;10.80;;;5.93;;
11191;SDS011;5652;48.406;10.820;2023-05-15T03:45:20;11.70;;;6.00;;
11191;SDS011;5652;48.406;10.820;2023-05-15T03:47:47;10.88;;;6.53;;
11191;SDS011;5652;48.406;10.820;2023-05-15T03:50:14;11.00;;;6.38;;
11191;SDS011;5652;48.406;10.820;2023-05-15T03:52:41;13.48;;;6.63;;
11191;SDS011;5652;48.406;10.820;2023-05-15T03:55:09;12.45;;;7.05;;
11191;SDS011;5652;48.406;10.820;2023-05-15T03:57:36;9.88;;;6.53;;
11191;SDS011;5652;48.406;10.820;2023-05-15T04:00:09;15.10;;;7.05;;
11191;SDS011;5652;48.406;10.820;2023-05-15T04:02:36;12.38;;;7.45;;
11191;SDS011;5652;48.406;10.820;2023-05-15T04:05:04;12.98;;;7.03;;
11191;SDS011;5652;48.406;10.820;2023-05-15T04:07:32;13.13;;;7.13;;
11191;SDS011;5652;48.406;10.820;2023-05-15T04:09:59;14.40;;;8.07;;
11191;SDS011;5652;48.406;10.820;2023-05-15T04:12:27;13.85;;;7.32;;
11191;SDS011;5652;48.406;10.820;2023-05-15T04:14:54;11.77;;;7.47;;
11191;SDS011;5652;48.406;10.820;2023-05-15T04:17:23;14.13;;;7.47;;
11191;SDS011;5652;48.406;10.820;2023-05-15T04:19:50;12.52;;;7.78;;
11191;SDS011;5652;48.406;10.820;2023-05-15T04:22:17;13.10;;;7.20;;
11191;SDS011;5652;48.406;10.820;2023-05-15T04:24:44;13.07;;;6.90;;
11191;SDS011;5652;48.406;10.820;2023-05-15T04:27:11;12.40;;;7.45;;
11191;SDS011;5652;48.406;10.820;2023-05-15T04:29:38;15.63;;;8.02;;
11191;SDS011;5652;48.406;10.820;2023-05-15T04:32:05;14.88;;;8.30;;
11191;SDS011;5652;48.406;10.820;2023-05-15T04:34:34;14.43;;;8.27;;
11191;SDS011;5652;48.406;10.820;2023-05-15T04:37:01;15.80;;;8.33;;
11191;SDS011;5652;48.406;10.820;2023-05-15T04:39:28;13.98;;;8.15;;
11191;SDS011;5652;48.406;10.820;2023-05-15T04:41:56;16.38;;;8.60;;
11191;SDS011;5652;48.406;10.820;2023-05-15T04:44:23;14.73;;;8.32;;
11191;SDS011;5652;48.406;10.820;2023-05-15T04:46:50;15.47;;;8.70;;
11191;SDS011;5652;48.406;10.820;2023-05-15T04:49:17;20.45;;;10.80;;
11191;SDS011;5652;48.406;10.820;2023-05-15T04:51:46;19.70;;;9.85;;
11191;SDS011;5652;48.406;10.820;2023-05-15T04:54:13;16.23;;;9.48;;
11191;SDS011;5652;48.406;10.820;2023-05-15T04:56:40;15.93;;;8.90;;
11191;SDS011;5652;48.406;10.820;2023-05-15T04:59:07;14.88;;;9.32;;
11191;SDS011;5652;48.406;10.820;2023-05-15T05:01:35;14.57;;;8.88;;
11191;SDS011;5652;48.406;10.820;2023-05-15T05:04:02;14.57;;;8.70;;
11191;SDS011;5652;48.406;10.820;2023-05-15T05:06:29;13.83;;;8.60;;
11191;SDS011;5652;48.406;10.820;2023-05-15T05:08:58;13.60;;;7.88;;
11191;SDS011;5652;48.406;10.820;2023-05-15T05:11:25;15.23;;;8.35;;
11191;SDS011;5652;48.406;10.820;2023-05-15T05:13:52;14.70;;;7.65;;
11191;SDS011;5652;48.406;10.820;2023-05-15T05:16:19;13.93;;;7.50;;
11191;SDS011;5652;48.406;10.820;2023-05-15T05:18:46;11.10;;;7.53;;
11191;SDS011;5652;48.406;10.820;2023-05-15T05:21:14;11.82;;;7.00;;
11191;SDS011;5652;48.406;10.820;2023-05-15T05:23:41;10.87;;;6.83;;
11191;SDS011;5652;48.406;10.820;2023-05-15T05:26:10;8.93;;;6.53;;
11191;SDS011;5652;48.406;10.820;2023-05-15T05:28:37;8.73;;;6.03;;
11191;SDS011;5652;48.406;10.820;2023-05-15T05:31:04;9.00;;;6.10;;
11191;SDS011;5652;48.406;10.820;2023-05-15T05:33:32;10.70;;;6.22;;
11191;SDS011;5652;48.406;10.820;2023-05-15T05:35:59;8.05;;;5.78;;
11191;SDS011;5652;48.406;10.820;2023-05-15T05:38:27;10.27;;;5.45;;
11191;SDS011;5652;48.406;10.820;2023-05-15T05:40:54;8.50;;;5.90;;
11191;SDS011;5652;48.406;10.820;2023-05-15T05:43:24;6.63;;;4.70;;
11191;SDS011;5652;48.406;10.820;2023-05-15T05:45:51;6.73;;;4.73;;
11191;SDS011;5652;48.406;10.820;2023-05-15T05:48:18;10.02;;;5.70;;
11191;SDS011;5652;48.406;10.820;2023-05-15T05:50:45;7.68;;;5.53;;
11191;SDS011;5652;48.406;10.820;2023-05-15T05:53:12;10.33;;;6.27;;
11191;SDS011;5652;48.406;10.820;2023-05-15T05:55:40;8.13;;;5.50;;
11191;SDS011;5652;48.406;10.820;2023-05-15T05:58:07;8.00;;;5.72;;
11191;SDS011;5652;48.406;10.820;2023-05-15T06:00:35;6.35;;;4.95;;
11191;SDS011;5652;48.406;10.820;2023-05-15T06:03:03;7.82;;;5.20;;
11191;SDS011;5652;48.406;10.820;2023-05-15T06:05:30;7.55;;;5.30;;
11191;SDS011;5652;48.406;10.820;2023-05-15T06:07:58;8.00;;;5.65;;
11191;SDS011;5652;48.406;10.820;2023-05-15T06:10:26;7.35;;;5.28;;
11191;SDS011;5652;48.406;10.820;2023-05-15T06:12:53;7.03;;;5.07;;
11191;SDS011;5652;48.406;10.820;2023-05-15T06:15:21;7.25;;;5.00;;
11191;SDS011;5652;48.406;10.820;2023-05-15T06:17:49;6.73;;;4.83;;
11191;SDS011;5652;48.406;10.820;2023-05-15T06:20:16;6.80;;;4.68;;
11191;SDS011;5652;48.406;10.820;2023-05-15T06:22:43;8.73;;;5.15;;
11191;SDS011;5652;48.406;10.820;2023-05-15T06:25:10;6.45;;;4.78;;
11191;SDS011;5652;48.406;10.820;2023-05-15T06:27:38;6.70;;;5.05;;
11191;SDS011;5652;48.406;10.820;2023-05-15T06:30:06;7.47;;;4.18;;
11191;SDS011;5652;48.406;10.820;2023-05-15T06:32:34;5.88;;;4.18;;
11191;SDS011;5652;48.406;10.820;2023-05-15T06:35:02;5.82;;;4.35;;
11191;SDS011;5652;48.406;10.820;2023-05-15T06:37:30;5.75;;;3.92;;
11191;SDS011;5652;48.406;10.820;2023-05-15T06:39:57;6.20;;;4.43;;
11191;SDS011;5652;48.406;10.820;2023-05-15T06:42:25;7.83;;;4.10;;
11191;SDS011;5652;48.406;10.820;2023-05-15T06:44:52;6.63;;;4.22;;
11191;SDS011;5652;48.406;10.820;2023-05-15T06:47:22;5.22;;;4.10;;
11191;SDS011;5652;48.406;10.820;2023-05-15T06:49:52;5.57;;;4.47;;
11191;SDS011;5652;48.406;10.820;2023-05-15T06:52:21;5.38;;;3.90;;
11191;SDS011;5652;48.406;10.820;2023-05-15T06:54:48;5.78;;;4.30;;
11191;SDS011;5652;48.406;10.820;2023-05-15T06:57:16;6.15;;;4.38;;
11191;SDS011;5652;48.406;10.820;2023-05-15T06:59:43;6.15;;;4.22;;
11191;SDS011;5652;48.406;10.820;2023-05-15T07:02:10;4.60;;;3.78;;
11191;SDS011;5652;48.406;10.820;2023-05-15T07:04:38;7.03;;;4.10;;
11191;SDS011;5652;48.406;10.820;2023-05-15T07:07:05;7.30;;;4.60;;
11191;SDS011;5652;48.406;10.820;2023-05-15T07:09:33;7.22;;;4.07;;
11191;SDS011;5652;48.406;10.820;2023-05-15T07:12:04;5.40;;;4.22;;
11191;SDS011;5652;48.406;10.820;2023-05-15T07:14:31;7.10;;;4.63;;
11191;SDS011;5652;48.406;10.820;2023-05-15T07:16:59;7.10;;;4.70;;
11191;SDS011;5652;48.406;10.820;2023-05-15T07:19:26;5.57;;;4.43;;
11191;SDS011;5652;48.406;10.820;2023-05-15T07:21:53;5.38;;;3.88;;
11191;SDS011;5652;48.406;10.820;2023-05-15T07:24:20;6.20;;;4.47;;
11191;SDS011;5652;48.406;10.820;2023-05-15T07:26:49;5.73;;;4.40;;
11191;SDS011;5652;48.406;10.820;2023-05-15T07:29:16;5.50;;;4.20;;
11191;SDS011;5652;48.406;10.820;2023-05-15T07:31:43;6.07;;;4.33;;
11191;SDS011;5652;48.406;10.820;2023-05-15T07:34:10;6.00;;;4.10;;
11191;SDS011;5652;48.406;10.820;2023-05-15T07:36:38;7.80;;;4.07;;
11191;SDS011;5652;48.406;10.820;2023-05-15T07:39:05;6.20;;;4.10;;
11191;SDS011;5652;48.406;10.820;2023-05-15T07:41:32;6.05;;;4.00;;
11191;SDS011;5652;48.406;10.820;2023-05-15T07:44:00;6.00;;;4.38;;
11191;SDS011;5652;48.406;10.820;2023-05-15T07:46:28;5.55;;;3.97;;
11191;SDS011;5652;48.406;10.820;2023-05-15T07:48:55;5.30;;;3.95;;
11191;SDS011;5652;48.406;10.820;2023-05-15T07:51:22;5.88;;;4.05;;
11191;SDS011;5652;48.406;10.820;2023-05-15T07:53:49;4.80;;;3.90;;
11191;SDS011;5652;48.406;10.820;2023-05-15T07:56:16;5.90;;;4.20;;
11191;SDS011;5652;48.406;10.820;2023-05-15T07:58:44;5.40;;;3.70;;
11191;SDS011;5652;48.406;10.820;2023-05-15T08:01:12;6.30;;;4.28;;
11191;SDS011;5652;48.406;10.820;2023-05-15T08:03:40;6.43;;;3.90;;
11191;SDS011;5652;48.406;10.820;2023-05-15T08:06:07;6.50;;;3.58;;
11191;SDS011;5652;48.406;10.820;2023-05-15T08:08:34;6.85;;;3.60;;
11191;SDS011;5652;48.406;10.820;2023-05-15T08:11:01;4.65;;;3.80;;
11191;SDS011;5652;48.406;10.820;2023-05-15T08:13:28;5.45;;;3.80;;
11191;SDS011;5652;48.406;10.820;2023-05-15T08:15:55;4.07;;;3.60;;
11191;SDS011;5652;48.406;10.820;2023-05-15T08:18:24;4.95;;;3.75;;
11191;SDS011;5652;48.406;10.820;2023-05-15T08:20:51;4.82;;;3.72;;
11191;SDS011;5652;48.406;10.820;2023-05-15T08:23:18;4.20;;;3.63;;
11191;SDS011;5652;48.406;10.820;2023-05-15T08:25:45;7.28;;;3.65;;
11191;SDS011;5652;48.406;10.820;2023-05-15T08:28:12;6.20;;;3.75;;
11191;SDS011;5652;48.406;10.820;2023-05-15T08:30:39;4.03;;;3.30;;
11191;SDS011;5652;48.406;10.820;2023-05-15T08:33:06;4.97;;;3.88;;
11191;SDS011;5652;48.406;10.820;2023-05-15T08:35:36;4.57;;;3.90;;
11191;SDS011;5652;48.406;10.820;2023-05-15T08:38:04;5.18;;;4.20;;
11191;SDS011;5652;48.406;10.820;2023-05-15T08:40:31;4.93;;;3.83;;
11191;SDS011;5652;48.406;10.820;2023-05-15T08:42:59;5.72;;;3.95;;
11191;SDS011;5652;48.406;10.820;2023-05-15T08:45:29;5.72;;;3.92;;
11191;SDS011;5652;48.406;10.820;2023-05-15T08:47:56;5.10;;;3.53;;
11191;SDS011;5652;48.406;10.820;2023-05-15T08:50:24;4.22;;;3.35;;
11191;SDS011;5652;48.406;10.820;2023-05-15T08:52:56;7.30;;;3.53;;
11191;SDS011;5652;48.406;10.820;2023-05-15T08:55:25;4.20;;;3.65;;
11191;SDS011;5652;48.406;10.820;2023-05-15T08:57:53;5.40;;;4.18;;
11191;SDS011;5652;48.406;10.820;2023-05-15T09:00:21;7.13;;;4.03;;
11191;SDS011;5652;48.406;10.820;2023-05-15T09:02:48;6.32;;;3.45;;
11191;SDS011;5652;48.406;10.820;2023-05-15T09:05:15;4.88;;;3.78;;
11191;SDS011;5652;48.406;10.820;2023-05-15T09:07:43;5.67;;;3.80;;
11191;SDS011;5652;48.406;10.820;2023-05-15T09:10:12;6.53;;;3.67;;
11191;SDS011;5652;48.406;10.820;2023-05-15T09:12:41;6.45;;;3.63;;
11191;SDS011;5652;48.406;10.820;2023-05-15T09:15:12;5.17;;;3.67;;
11191;SDS011;5652;48.406;10.820;2023-05-15T09:17:41;4.63;;;3.40;;
11191;SDS011;5652;48.406;10.820;2023-05-15T09:20:23;4.30;;;3.58;;
11191;SDS011;5652;48.406;10.820;2023-05-15T09:22:50;5.13;;;3.17;;
11191;SDS011;5652;48.406;10.820;2023-05-15T09:25:31;3.77;;;3.23;;
11191;SDS011;5652;48.406;10.820;2023-05-15T09:27:59;3.73;;;3.07;;
11191;SDS011;5652;48.406;10.820;2023-05-15T09:30:27;4.32;;;3.20;;
11191;SDS011;5652;48.406;10.820;2023-05-15T09:32:55;4.50;;;3.38;;
11191;SDS011;5652;48.406;10.820;2023-05-15T09:35:26;4.07;;;3.15;;
11191;SDS011;5652;48.406;10.820;2023-05-15T09:37:56;4.35;;;3.33;;
11191;SDS011;5652;48.406;10.820;2023-05-15T09:40:27;4.85;;;3.60;;
11191;SDS011;5652;48.406;10.820;2023-05-15T09:42:56;4.40;;;3.10;;
11191;SDS011;5652;48.406;10.820;2023-05-15T09:45:24;3.53;;;3.10;;
11191;SDS011;5652;48.406;10.820;2023-05-15T09:47:53;4.10;;;3.15;;
11191;SDS011;5652;48.406;10.820;2023-05-15T09:50:21;3.53;;;3.05;;
11191;SDS011;5652;48.406;10.820;2023-05-15T09:52:49;4.13;;;3.05;;
11191;SDS011;5652;48.406;10.820;2023-05-15T09:55:17;4.88;;;3.40;;
11191;SDS011;5652;48.406;10.820;2023-05-15T09:57:45;3.85;;;3.15;;
11191;SDS011;5652;48.406;10.820;2023-05-15T10:00:31;3.58;;;2.90;;
11191;SDS011;5652;48.406;10.820;2023-05-15T10:02:59;3.50;;;2.60;;
11191;SDS011;5652;48.406;10.820;2023-05-15T10:05:27;3.13;;;2.78;;
11191;SDS011;5652;48.406;10.820;2023-05-15T10:07:54;3.75;;;2.75;;
11191;SDS011;5652;48.406;10.820;2023-05-15T10:10:22;3.30;;;3.00;;
11191;SDS011;5652;48.406;10.820;2023-05-15T10:12:50;3.38;;;2.75;;
11191;SDS011;5652;48.406;10.820;2023-05-15T10:15:17;3.13;;;2.50;;
11191;SDS011;5652;48.406;10.820;2023-05-15T10:17:47;2.80;;;2.35;;
11191;SDS011;5652;48.406;10.820;2023-05-15T10:20:14;3.65;;;2.40;;
11191;SDS011;5652;48.406;10.820;2023-05-15T10:22:45;3.30;;;2.80;;
11191;SDS011;5652;48.406;10.820;2023-05-15T10:25:15;4.90;;;3.17;;
11191;SDS011;5652;48.406;10.820;2023-05-15T10:27:42;2.97;;;2.50;;
11191;SDS011;5652;48.406;10.820;2023-05-15T10:30:09;5.93;;;2.75;;
11191;SDS011;5652;48.406;10.820;2023-05-15T10:32:37;3.05;;;2.15;;
11191;SDS011;5652;48.406;10.820;2023-05-15T10:35:07;2.83;;;2.05;;
11191;SDS011;5652;48.406;10.820;2023-05-15T10:37:35;3.40;;;2.00;;
11191;SDS011;5652;48.406;10.820;2023-05-15T10:40:03;5.15;;;2.58;;
11191;SDS011;5652;48.406;10.820;2023-05-15T10:42:31;2.90;;;2.30;;
11191;SDS011;5652;48.406;10.820;2023-05-15T10:44:59;3.25;;;2.58;;
11191;SDS011;5652;48.406;10.820;2023-05-15T10:47:27;3.75;;;3.25;;
11191;SDS011;5652;48.406;10.820;2023-05-15T10:49:55;5.07;;;2.95;;
11191;SDS011;5652;48.406;10.820;2023-05-15T10:52:24;3.42;;;2.72;;
11191;SDS011;5652;48.406;10.820;2023-05-15T10:54:51;3.58;;;2.35;;
11191;SDS011;5652;48.406;10.820;2023-05-15T10:57:19;4.15;;;2.53;;
11191;SDS011;5652;48.406;10.820;2023-05-15T10:59:47;4.55;;;2.75;;
11191;SDS011;5652;48.406;10.820;2023-05-15T11:02:20;3.67;;;2.75;;
11191;SDS011;5652;48.406;10.820;2023-05-15T11:04:52;3.88;;;2.50;;
11191;SDS011;5652;48.406;10.820;2023-05-15T11:07:20;3.20;;;2.73;;
11191;SDS011;5652;48.406;10.820;2023-05-15T11:09:50;3.20;;;2.40;;
11191;SDS011;5652;48.406;10.820;2023-05-15T11:12:17;4.00;;;2.70;;
11191;SDS011;5652;48.406;10.820;2023-05-15T11:17:32;4.18;;;2.85;;
11191;SDS011;5652;48.406;10.820;2023-05-15T11:19:59;4.78;;;2.75;;
11191;SDS011;5652;48.406;10.820;2023-05-15T11:22:30;3.97;;;2.87;;
11191;SDS011;5652;48.406;10.820;2023-05-15T11:25:00;3.20;;;2.90;;
11191;SDS011;5652;48.406;10.820;2023-05-15T11:27:28;3.28;;;2.70;;
11191;SDS011;5652;48.406;10.820;2023-05-15T11:30:02;3.80;;;3.00;;
11191;SDS011;5652;48.406;10.820;2023-05-15T11:32:30;3.78;;;2.92;;
11191;SDS011;5652;48.406;10.820;2023-05-15T11:34:58;3.80;;;2.92;;
11191;SDS011;5652;48.406;10.820;2023-05-15T11:37:26;3.47;;;2.80;;
11191;SDS011;5652;48.406;10.820;2023-05-15T11:39:53;3.22;;;2.40;;
11191;SDS011;5652;48.406;10.820;2023-05-15T11:42:22;5.63;;;3.70;;
11191;SDS011;5652;48.406;10.820;2023-05-15T11:44:50;3.13;;;2.42;;
11191;SDS011;5652;48.406;10.820;2023-05-15T11:47:18;3.40;;;2.60;;
11191;SDS011;5652;48.406;10.820;2023-05-15T11:49:47;3.22;;;2.80;;
11191;SDS011;5652;48.406;10.820;2023-05-15T11:52:15;3.55;;;2.92;;
11191;SDS011;5652;48.406;10.820;2023-05-15T11:54:42;3.10;;;2.80;;
11191;SDS011;5652;48.406;10.820;2023-05-15T11:57:10;3.80;;;2.95;;
11191;SDS011;5652;48.406;10.820;2023-05-15T11:59:41;3.30;;;2.80;;
11191;SDS011;5652;48.406;10.820;2023-05-15T12:02:10;4.20;;;2.35;;
11191;SDS011;5652;48.406;10.820;2023-05-15T12:04:37;9.40;;;2.58;;
11191;SDS011;5652;48.406;10.820;2023-05-15T12:07:04;4.50;;;2.60;;
11191;SDS011;5652;48.406;10.820;2023-05-15T12:09:33;4.30;;;2.65;;
11191;SDS011;5652;48.406;10.820;2023-05-15T12:12:00;11.17;;;3.60;;
11191;SDS011;5652;48.406;10.820;2023-05-15T12:14:29;6.32;;;3.00;;
11191;SDS011;5652;48.406;10.820;2023-05-15T12:17:00;5.00;;;2.97;;
11191;SDS011;5652;48.406;10.820;2023-05-15T12:19:28;3.55;;;2.50;;
11191;SDS011;5652;48.406;10.820;2023-05-15T12:21:55;4.65;;;2.60;;
11191;SDS011;5652;48.406;10.820;2023-05-15T12:24:23;3.83;;;2.13;;
11191;SDS011;5652;48.406;10.820;2023-05-15T12:26:53;4.82;;;2.60;;
11191;SDS011;5652;48.406;10.820;2023-05-15T12:29:20;2.70;;;2.38;;
11191;SDS011;5652;48.406;10.820;2023-05-15T12:31:47;4.70;;;2.60;;
11191;SDS011;5652;48.406;10.820;2023-05-15T12:34:19;4.57;;;2.60;;
11191;SDS011;5652;48.406;10.820;2023-05-15T12:36:46;3.25;;;2.25;;
11191;SDS011;5652;48.406;10.820;2023-05-15T12:39:13;3.40;;;2.35;;
11191;SDS011;5652;48.406;10.820;2023-05-15T12:41:40;3.70;;;2.35;;
11191;SDS011;5652;48.406;10.820;2023-05-15T12:44:14;3.53;;;2.17;;
11191;SDS011;5652;48.406;10.820;2023-05-15T12:46:42;2.50;;;2.00;;
11191;SDS011;5652;48.406;10.820;2023-05-15T12:49:09;4.20;;;2.15;;
11191;SDS011;5652;48.406;10.820;2023-05-15T12:51:42;3.00;;;2.15;;
11191;SDS011;5652;48.406;10.820;2023-05-15T12:54:15;2.90;;;1.90;;
11191;SDS011;5652;48.406;10.820;2023-05-15T12:56:42;5.00;;;2.20;;
11191;SDS011;5652;48.406;10.820;2023-05-15T12:59:09;2.47;;;2.20;;
11191;SDS011;5652;48.406;10.820;2023-05-15T13:01:39;4.03;;;2.28;;
11191;SDS011;5652;48.406;10.820;2023-05-15T13:04:07;3.10;;;2.15;;
11191;SDS011;5652;48.406;10.820;2023-05-15T13:06:36;3.58;;;2.30;;
11191;SDS011;5652;48.406;10.820;2023-05-15T13:09:05;3.85;;;2.80;;
11191;SDS011;5652;48.406;10.820;2023-05-15T13:11:33;4.15;;;2.20;;
11191;SDS011;5652;48.406;10.820;2023-05-15T13:14:07;3.72;;;2.55;;
11191;SDS011;5652;48.406;10.820;2023-05-15T13:16:35;5.10;;;2.25;;
11191;SDS011;5652;48.406;10.820;2023-05-15T13:19:02;4.20;;;2.33;;
11191;SDS011;5652;48.406;10.820;2023-05-15T13:21:31;9.20;;;2.60;;
11191;SDS011;5652;48.406;10.820;2023-05-15T13:23:58;6.57;;;2.80;;
11191;SDS011;5652;48.406;10.820;2023-05-15T13:26:26;3.63;;;2.60;;
11191;SDS011;5652;48.406;10.820;2023-05-15T13:28:54;5.32;;;2.55;;
11191;SDS011;5652;48.406;10.820;2023-05-15T13:31:21;5.70;;;2.58;;
11191;SDS011;5652;48.406;10.820;2023-05-15T13:33:48;3.50;;;2.53;;
11191;SDS011;5652;48.406;10.820;2023-05-15T13:36:15;3.10;;;2.15;;
11191;SDS011;5652;48.406;10.820;2023-05-15T13:38:42;3.05;;;2.00;;
11191;SDS011;5652;48.406;10.820;2023-05-15T13:41:10;2.50;;;2.30;;
11191;SDS011;5652;48.406;10.820;2023-05-15T13:43:38;3.38;;;2.33;;
11191;SDS011;5652;48.406;10.820;2023-05-15T13:46:05;2.95;;;2.28;;
11191;SDS011;5652;48.406;10.820;2023-05-15T13:48:33;3.47;;;2.40;;
11191;SDS011;5652;48.406;10.820;2023-05-15T13:51:00;3.42;;;2.35;;
11191;SDS011;5652;48.406;10.820;2023-05-15T13:53:27;4.05;;;2.13;;
11191;SDS011;5652;48.406;10.820;2023-05-15T13:55:54;3.30;;;2.40;;
11191;SDS011;5652;48.406;10.820;2023-05-15T13:58:21;3.38;;;2.28;;
11191;SDS011;5652;48.406;10.820;2023-05-15T14:00:51;3.05;;;2.47;;
11191;SDS011;5652;48.406;10.820;2023-05-15T14:03:19;3.67;;;2.45;;
11191;SDS011;5652;48.406;10.820;2023-05-15T14:05:46;2.53;;;2.30;;
11191;SDS011;5652;48.406;10.820;2023-05-15T14:08:13;2.87;;;2.50;;
11191;SDS011;5652;48.406;10.820;2023-05-15T14:10:40;3.75;;;2.67;;
11191;SDS011;5652;48.406;10.820;2023-05-15T14:13:08;2.83;;;2.53;;
11191;SDS011;5652;48.406;10.820;2023-05-15T14:15:35;3.80;;;2.78;;
11191;SDS011;5652;48.406;10.820;2023-05-15T14:18:04;5.05;;;3.17;;
11191;SDS011;5652;48.406;10.820;2023-05-15T14:20:31;4.25;;;2.75;;
11191;SDS011;5652;48.406;10.820;2023-05-15T14:22:58;4.18;;;2.80;;
11191;SDS011;5652;48.406;10.820;2023-05-15T14:25:25;4.57;;;2.67;;
11191;SDS011;5652;48.406;10.820;2023-05-15T14:27:52;3.05;;;2.67;;
11191;SDS011;5652;48.406;10.820;2023-05-15T14:30:20;3.72;;;2.60;;
11191;SDS011;5652;48.406;10.820;2023-05-15T14:32:47;3.47;;;2.90;;
11191;SDS011;5652;48.406;10.820;2023-05-15T14:35:16;3.53;;;2.70;;
11191;SDS011;5652;48.406;10.820;2023-05-15T14:37:43;3.40;;;2.90;;
11191;SDS011;5652;48.406;10.820;2023-05-15T14:40:10;3.85;;;3.03;;
11191;SDS011;5652;48.406;10.820;2023-05-15T14:42:38;5.35;;;3.30;;
11191;SDS011;5652;48.406;10.820;2023-05-15T14:45:05;3.00;;;2.70;;
11191;SDS011;5652;48.406;10.820;2023-05-15T14:47:32;3.88;;;3.03;;
11191;SDS011;5652;48.406;10.820;2023-05-15T14:49:59;3.42;;;2.83;;
11191;SDS011;5652;48.406;10.820;2023-05-15T14:52:28;3.70;;;2.90;;
11191;SDS011;5652;48.406;10.820;2023-05-15T14:54:56;3.40;;;2.50;;